This is the latest recevied weather packets stored in our database for station/object W0AKY-13. If no packets are shown the sender has not sent any weather packets the latest 10 day(s).
| Time | Temp. | Humidity | Pressure | Rain* | Wind** | Luminosity | Snow |
|---|---|---|---|---|---|---|---|
| 1788545860 | 34.44° C | 60% | 1014.4 hPa | 0 mm | - | 544 W/m² | - |
| 1788545559 | 34.44° C | 62% | 1014.4 hPa | 0 mm | - | 577 W/m² | - |
| 1788545255 | 35° C | 60% | 1014.4 hPa | 0 mm | - | 524 W/m² | - |
| 1788544950 | 35° C | 60% | 1014.5 hPa | 0 mm | - | 544 W/m² | - |
| 1788544649 | 35° C | 59% | 1014.4 hPa | 0 mm | - | 578 W/m² | - |
| 1788544348 | 35° C | 60% | 1014.6 hPa | 0 mm | - | 569 W/m² | - |
| 1788544043 | 33.89° C | 63% | 1014.4 hPa | 0 mm | - | 559 W/m² | - |
| 1788543739 | 34.44° C | 62% | 1014.5 hPa | 0 mm | - | 564 W/m² | - |
| 1788543434 | 34.44° C | 63% | 1014.6 hPa | 0 mm | - | 564 W/m² | - |
| 1788543135 | 33.89° C | 63% | 1014.5 hPa | 0 mm | - | 559 W/m² | - |
| 1788542831 | 33.33° C | 62% | 1014.4 hPa | 0 mm | - | 556 W/m² | - |
| 1788542530 | 33.33° C | 63% | 1014.3 hPa | 0 mm | - | 549 W/m² | - |
| 1788542226 | 33.33° C | 65% | 1014.5 hPa | 0 mm | - | 542 W/m² | - |
| 1788541921 | 33.89° C | 63% | 1014.6 hPa | 0 mm | - | 537 W/m² | - |
| 1788541617 | 33.33° C | 64% | 1014.5 hPa | 0 mm | - | 529 W/m² | - |
| 1788541312 | 33.33° C | 62% | 1014.6 hPa | 0 mm | - | 525 W/m² | - |
| 1788541011 | 32.78° C | 64% | 1014.3 hPa | 0 mm | - | 523 W/m² | - |
| 1788540710 | 33.33° C | 63% | 1014.5 hPa | 0 mm | - | 517 W/m² | - |
| 1788540406 | 32.78° C | 64% | 1014.5 hPa | 0 mm | - | 509 W/m² | - |
| 1788540100 | 32.78° C | 64% | 1014.3 hPa | 0 mm | - | 503 W/m² | - |
| 1788539797 | 32.78° C | 66% | 1014.5 hPa | 0 mm | - | 491 W/m² | - |
| 1788539492 | 32.78° C | 64% | 1014.5 hPa | 0 mm | - | 482 W/m² | - |
| 1788539191 | 32.22° C | 65% | 1014.4 hPa | 0 mm | - | 472 W/m² | - |
| 1788538886 | 32.22° C | 64% | 1014.6 hPa | 0 mm | - | 459 W/m² | - |
| 1788538582 | 31.67° C | 67% | 1014.8 hPa | 0 mm | - | 450 W/m² | - |
* Rain latest hour (hover to see other rain measurements)
** Current wind speed in m/s (hover to see current wind gust speed)